sensor_id;sensor_type;location;lat;lon;timestamp;pressure;altitude;pressure_sealevel;temperature;humidity
20710;BME280;10516;51.518;9.864;2024-01-30T00:00:31;100062.28;;;2.65;83.66
20710;BME280;10516;51.518;9.864;2024-01-30T00:02:56;100064.41;;;2.70;83.72
20710;BME280;10516;51.518;9.864;2024-01-30T00:05:21;100070.00;;;2.67;84.11
20710;BME280;10516;51.518;9.864;2024-01-30T00:07:47;100065.56;;;2.67;83.93
20710;BME280;10516;51.518;9.864;2024-01-30T00:10:14;100054.84;;;2.69;84.09
20710;BME280;10516;51.518;9.864;2024-01-30T00:12:39;100058.66;;;2.66;83.65
20710;BME280;10516;51.518;9.864;2024-01-30T00:15:04;100054.47;;;2.80;83.33
20710;BME280;10516;51.518;9.864;2024-01-30T00:17:33;100060.22;;;2.91;83.10
20710;BME280;10516;51.518;9.864;2024-01-30T00:19:58;100062.88;;;2.91;82.81
20710;BME280;10516;51.518;9.864;2024-01-30T00:22:24;100054.63;;;2.86;82.80
20710;BME280;10516;51.518;9.864;2024-01-30T00:24:49;100059.78;;;2.72;83.68
20710;BME280;10516;51.518;9.864;2024-01-30T00:27:16;100049.25;;;2.72;83.58
20710;BME280;10516;51.518;9.864;2024-01-30T00:29:41;100056.50;;;2.70;83.87
20710;BME280;10516;51.518;9.864;2024-01-30T00:32:06;100046.47;;;2.65;83.62
20710;BME280;10516;51.518;9.864;2024-01-30T00:34:32;100051.69;;;2.81;83.58
20710;BME280;10516;51.518;9.864;2024-01-30T00:36:57;100043.78;;;2.81;83.24
20710;BME280;10516;51.518;9.864;2024-01-30T00:39:22;100055.69;;;2.77;83.48
20710;BME280;10516;51.518;9.864;2024-01-30T00:41:48;100047.28;;;2.66;83.89
20710;BME280;10516;51.518;9.864;2024-01-30T00:44:13;100040.69;;;2.70;83.52
20710;BME280;10516;51.518;9.864;2024-01-30T00:46:39;100043.16;;;2.71;83.44
20710;BME280;10516;51.518;9.864;2024-01-30T00:49:04;100043.28;;;2.86;82.90
20710;BME280;10516;51.518;9.864;2024-01-30T00:51:29;100038.66;;;2.80;83.29
20710;BME280;10516;51.518;9.864;2024-01-30T00:53:55;100047.50;;;2.95;82.54
20710;BME280;10516;51.518;9.864;2024-01-30T00:56:20;100043.84;;;2.57;83.49
20710;BME280;10516;51.518;9.864;2024-01-30T00:58:46;100045.50;;;2.66;83.64
20710;BME280;10516;51.518;9.864;2024-01-30T01:01:11;100034.28;;;2.56;83.23
20710;BME280;10516;51.518;9.864;2024-01-30T01:03:37;100049.28;;;2.64;83.48
20710;BME280;10516;51.518;9.864;2024-01-30T01:06:02;100047.31;;;2.58;83.71
20710;BME280;10516;51.518;9.864;2024-01-30T01:08:28;100042.53;;;2.61;83.91
20710;BME280;10516;51.518;9.864;2024-01-30T01:10:53;100039.91;;;2.53;84.39
20710;BME280;10516;51.518;9.864;2024-01-30T01:13:19;100053.09;;;2.53;84.13
20710;BME280;10516;51.518;9.864;2024-01-30T01:15:44;100045.34;;;2.52;83.93
20710;BME280;10516;51.518;9.864;2024-01-30T01:18:09;100050.94;;;2.49;84.22
20710;BME280;10516;51.518;9.864;2024-01-30T01:20:35;100054.91;;;2.53;83.84
20710;BME280;10516;51.518;9.864;2024-01-30T01:23:00;100055.88;;;2.60;83.69
20710;BME280;10516;51.518;9.864;2024-01-30T01:25:26;100048.97;;;2.51;83.95
20710;BME280;10516;51.518;9.864;2024-01-30T01:27:51;100051.25;;;2.54;83.95
20710;BME280;10516;51.518;9.864;2024-01-30T01:30:18;100056.72;;;2.44;84.22
20710;BME280;10516;51.518;9.864;2024-01-30T01:32:49;100063.97;;;2.42;84.19
20710;BME280;10516;51.518;9.864;2024-01-30T01:35:24;100055.22;;;2.50;84.04
20710;BME280;10516;51.518;9.864;2024-01-30T01:37:51;100050.44;;;2.45;83.67
20710;BME280;10516;51.518;9.864;2024-01-30T01:40:25;100051.78;;;2.41;83.80
20710;BME280;10516;51.518;9.864;2024-01-30T01:42:51;100051.13;;;2.39;83.85
20710;BME280;10516;51.518;9.864;2024-01-30T01:45:20;100061.69;;;2.31;84.22
20710;BME280;10516;51.518;9.864;2024-01-30T01:47:47;100066.94;;;2.39;83.85
20710;BME280;10516;51.518;9.864;2024-01-30T01:50:14;100069.72;;;2.46;83.45
20710;BME280;10516;51.518;9.864;2024-01-30T01:52:43;100061.34;;;2.42;83.84
20710;BME280;10516;51.518;9.864;2024-01-30T01:55:10;100067.25;;;2.52;83.79
20710;BME280;10516;51.518;9.864;2024-01-30T01:57:36;100068.56;;;2.48;83.94
20710;BME280;10516;51.518;9.864;2024-01-30T02:00:02;100050.94;;;2.49;83.15
20710;BME280;10516;51.518;9.864;2024-01-30T02:02:30;100049.13;;;2.49;83.29
20710;BME280;10516;51.518;9.864;2024-01-30T02:04:57;100061.84;;;2.38;83.73
20710;BME280;10516;51.518;9.864;2024-01-30T02:07:23;100060.81;;;2.39;83.54
20710;BME280;10516;51.518;9.864;2024-01-30T02:09:49;100057.88;;;2.42;84.09
20710;BME280;10516;51.518;9.864;2024-01-30T02:12:14;100053.91;;;2.46;83.72
20710;BME280;10516;51.518;9.864;2024-01-30T02:14:46;100062.97;;;2.43;83.77
20710;BME280;10516;51.518;9.864;2024-01-30T02:17:13;100056.53;;;2.46;83.72
20710;BME280;10516;51.518;9.864;2024-01-30T02:19:39;100044.34;;;2.45;83.48
20710;BME280;10516;51.518;9.864;2024-01-30T02:22:04;100053.41;;;2.50;83.61
20710;BME280;10516;51.518;9.864;2024-01-30T02:24:30;100044.50;;;2.51;82.86
20710;BME280;10516;51.518;9.864;2024-01-30T02:26:55;100049.28;;;2.48;83.52
20710;BME280;10516;51.518;9.864;2024-01-30T02:29:21;100049.47;;;2.46;83.58
20710;BME280;10516;51.518;9.864;2024-01-30T02:31:46;100044.03;;;2.40;83.85
20710;BME280;10516;51.518;9.864;2024-01-30T02:34:12;100044.88;;;2.40;83.92
20710;BME280;10516;51.518;9.864;2024-01-30T02:36:37;100041.88;;;2.51;83.33
20710;BME280;10516;51.518;9.864;2024-01-30T02:39:03;100038.44;;;2.43;83.38
20710;BME280;10516;51.518;9.864;2024-01-30T02:41:28;100034.81;;;2.44;83.67
20710;BME280;10516;51.518;9.864;2024-01-30T02:43:54;100028.91;;;2.42;83.59
20710;BME280;10516;51.518;9.864;2024-01-30T02:46:19;100021.66;;;2.36;83.87
20710;BME280;10516;51.518;9.864;2024-01-30T02:48:44;100028.56;;;2.37;83.37
20710;BME280;10516;51.518;9.864;2024-01-30T02:51:10;100019.66;;;2.29;83.82
20710;BME280;10516;51.518;9.864;2024-01-30T02:53:35;100022.00;;;2.33;84.19
20710;BME280;10516;51.518;9.864;2024-01-30T02:56:02;100016.38;;;2.27;83.75
20710;BME280;10516;51.518;9.864;2024-01-30T02:58:27;100010.31;;;2.35;83.43
20710;BME280;10516;51.518;9.864;2024-01-30T03:00:53;100018.69;;;2.31;83.48
20710;BME280;10516;51.518;9.864;2024-01-30T03:03:18;100013.59;;;2.29;83.41
20710;BME280;10516;51.518;9.864;2024-01-30T03:05:43;100020.50;;;2.30;83.33
20710;BME280;10516;51.518;9.864;2024-01-30T03:08:09;100013.28;;;2.16;83.65
20710;BME280;10516;51.518;9.864;2024-01-30T03:10:34;100010.66;;;2.24;83.40
20710;BME280;10516;51.518;9.864;2024-01-30T03:12:59;100011.97;;;2.20;83.84
20710;BME280;10516;51.518;9.864;2024-01-30T03:15:25;100015.44;;;2.20;83.71
20710;BME280;10516;51.518;9.864;2024-01-30T03:17:50;100017.38;;;2.18;83.61
20710;BME280;10516;51.518;9.864;2024-01-30T03:20:15;100002.25;;;2.12;84.04
20710;BME280;10516;51.518;9.864;2024-01-30T03:22:41;100013.78;;;2.19;83.71
20710;BME280;10516;51.518;9.864;2024-01-30T03:25:06;100004.53;;;2.23;83.68
20710;BME280;10516;51.518;9.864;2024-01-30T03:27:32;100005.84;;;2.27;83.96
20710;BME280;10516;51.518;9.864;2024-01-30T03:29:57;100003.06;;;2.21;83.71
20710;BME280;10516;51.518;9.864;2024-01-30T03:32:22;99995.31;;;2.36;83.21
20710;BME280;10516;51.518;9.864;2024-01-30T03:34:48;99984.59;;;2.37;83.22
20710;BME280;10516;51.518;9.864;2024-01-30T03:37:13;99995.78;;;2.47;83.21
20710;BME280;10516;51.518;9.864;2024-01-30T03:39:38;99985.22;;;2.47;82.97
20710;BME280;10516;51.518;9.864;2024-01-30T03:42:04;99992.00;;;2.42;82.67
20710;BME280;10516;51.518;9.864;2024-01-30T03:44:29;99981.94;;;2.45;83.11
20710;BME280;10516;51.518;9.864;2024-01-30T03:46:54;99973.44;;;2.27;83.59
20710;BME280;10516;51.518;9.864;2024-01-30T03:49:20;99987.09;;;2.31;84.18
20710;BME280;10516;51.518;9.864;2024-01-30T03:51:45;99985.59;;;2.36;84.32
20710;BME280;10516;51.518;9.864;2024-01-30T03:54:12;99971.44;;;2.37;84.39
20710;BME280;10516;51.518;9.864;2024-01-30T03:56:38;99973.75;;;2.40;84.09
20710;BME280;10516;51.518;9.864;2024-01-30T03:59:03;99967.47;;;2.41;83.94
20710;BME280;10516;51.518;9.864;2024-01-30T04:01:29;99966.03;;;2.31;84.28
20710;BME280;10516;51.518;9.864;2024-01-30T04:03:54;99976.84;;;2.44;84.66
20710;BME280;10516;51.518;9.864;2024-01-30T04:06:19;99963.00;;;2.50;84.36
20710;BME280;10516;51.518;9.864;2024-01-30T04:08:44;99966.13;;;2.53;84.16
20710;BME280;10516;51.518;9.864;2024-01-30T04:11:10;99964.28;;;2.54;84.26
20710;BME280;10516;51.518;9.864;2024-01-30T04:13:35;99964.28;;;2.54;84.23
20710;BME280;10516;51.518;9.864;2024-01-30T04:16:01;99962.16;;;2.49;83.67
20710;BME280;10516;51.518;9.864;2024-01-30T04:18:28;99976.34;;;2.48;83.97
20710;BME280;10516;51.518;9.864;2024-01-30T04:20:53;99971.09;;;2.48;83.76
20710;BME280;10516;51.518;9.864;2024-01-30T04:23:19;99964.84;;;2.41;84.38
20710;BME280;10516;51.518;9.864;2024-01-30T04:25:44;99976.84;;;2.44;84.38
20710;BME280;10516;51.518;9.864;2024-01-30T04:28:10;99968.47;;;2.40;84.29
20710;BME280;10516;51.518;9.864;2024-01-30T04:30:39;99974.41;;;2.34;84.26
20710;BME280;10516;51.518;9.864;2024-01-30T04:33:05;99978.69;;;2.35;85.08
20710;BME280;10516;51.518;9.864;2024-01-30T04:35:30;99981.78;;;2.39;84.66
20710;BME280;10516;51.518;9.864;2024-01-30T04:37:55;99969.63;;;2.38;84.07
20710;BME280;10516;51.518;9.864;2024-01-30T04:40:21;99968.47;;;2.32;84.54
20710;BME280;10516;51.518;9.864;2024-01-30T04:42:46;99975.41;;;2.33;84.38
20710;BME280;10516;51.518;9.864;2024-01-30T04:45:12;99973.59;;;2.34;84.34
20710;BME280;10516;51.518;9.864;2024-01-30T04:47:37;99970.78;;;2.35;84.52
20710;BME280;10516;51.518;9.864;2024-01-30T04:50:05;99965.88;;;2.24;84.52
20710;BME280;10516;51.518;9.864;2024-01-30T04:52:31;99981.84;;;2.22;84.75
20710;BME280;10516;51.518;9.864;2024-01-30T04:54:57;99987.91;;;2.23;85.12
20710;BME280;10516;51.518;9.864;2024-01-30T04:57:22;99978.22;;;2.23;84.55
20710;BME280;10516;51.518;9.864;2024-01-30T04:59:47;99977.03;;;2.34;84.67
20710;BME280;10516;51.518;9.864;2024-01-30T05:02:13;99980.03;;;2.31;84.68
20710;BME280;10516;51.518;9.864;2024-01-30T05:04:38;99980.31;;;2.36;84.77
20710;BME280;10516;51.518;9.864;2024-01-30T05:07:03;99979.66;;;2.34;84.45
20710;BME280;10516;51.518;9.864;2024-01-30T05:09:29;99985.44;;;2.29;84.93
20710;BME280;10516;51.518;9.864;2024-01-30T05:11:54;99974.03;;;2.45;84.66
20710;BME280;10516;51.518;9.864;2024-01-30T05:14:20;99978.50;;;2.37;84.92
20710;BME280;10516;51.518;9.864;2024-01-30T05:16:45;99978.63;;;2.51;84.08
20710;BME280;10516;51.518;9.864;2024-01-30T05:19:13;99985.72;;;2.51;84.02
20710;BME280;10516;51.518;9.864;2024-01-30T05:21:39;99984.25;;;2.48;83.46
20710;BME280;10516;51.518;9.864;2024-01-30T05:24:04;99982.75;;;2.62;83.37
20710;BME280;10516;51.518;9.864;2024-01-30T05:26:30;99981.09;;;2.61;83.63
20710;BME280;10516;51.518;9.864;2024-01-30T05:28:55;99979.75;;;2.65;83.17
20710;BME280;10516;51.518;9.864;2024-01-30T05:31:20;99976.00;;;2.59;83.62
20710;BME280;10516;51.518;9.864;2024-01-30T05:33:46;99981.25;;;2.59;82.80
20710;BME280;10516;51.518;9.864;2024-01-30T05:36:15;99967.28;;;2.51;83.59
20710;BME280;10516;51.518;9.864;2024-01-30T05:38:40;99981.41;;;2.66;83.59
20710;BME280;10516;51.518;9.864;2024-01-30T05:41:06;99979.75;;;2.65;82.82
20710;BME280;10516;51.518;9.864;2024-01-30T05:43:31;99982.88;;;2.68;82.53
20710;BME280;10516;51.518;9.864;2024-01-30T05:45:56;99978.59;;;2.67;83.00
20710;BME280;10516;51.518;9.864;2024-01-30T05:48:22;99970.53;;;2.61;83.16
20710;BME280;10516;51.518;9.864;2024-01-30T05:50:47;99979.09;;;2.63;83.39
20710;BME280;10516;51.518;9.864;2024-01-30T05:53:12;99977.78;;;2.59;83.18
20710;BME280;10516;51.518;9.864;2024-01-30T05:55:38;99985.84;;;2.65;82.98
20710;BME280;10516;51.518;9.864;2024-01-30T05:58:03;99985.53;;;2.60;83.23
20710;BME280;10516;51.518;9.864;2024-01-30T06:00:29;99986.53;;;2.59;83.27
20710;BME280;10516;51.518;9.864;2024-01-30T06:02:54;99981.94;;;2.53;83.74
20710;BME280;10516;51.518;9.864;2024-01-30T06:05:23;99966.78;;;2.47;83.38
20710;BME280;10516;51.518;9.864;2024-01-30T06:07:48;99969.94;;;2.43;84.20
20710;BME280;10516;51.518;9.864;2024-01-30T06:10:14;99974.97;;;2.60;83.53
20710;BME280;10516;51.518;9.864;2024-01-30T06:12:39;99968.78;;;2.45;83.44
20710;BME280;10516;51.518;9.864;2024-01-30T06:15:05;99981.78;;;2.47;83.95
20710;BME280;10516;51.518;9.864;2024-01-30T06:17:32;99976.69;;;2.45;84.22
20710;BME280;10516;51.518;9.864;2024-01-30T06:19:57;99979.31;;;2.53;83.85
20710;BME280;10516;51.518;9.864;2024-01-30T06:22:23;99976.19;;;2.42;83.73
20710;BME280;10516;51.518;9.864;2024-01-30T06:24:48;99974.06;;;2.37;84.03
20710;BME280;10516;51.518;9.864;2024-01-30T06:27:14;99965.13;;;2.54;83.84
20710;BME280;10516;51.518;9.864;2024-01-30T06:29:40;99976.19;;;2.42;84.22
20710;BME280;10516;51.518;9.864;2024-01-30T06:32:07;99970.41;;;2.54;84.08
20710;BME280;10516;51.518;9.864;2024-01-30T06:34:33;99969.97;;;2.26;85.02
20710;BME280;10516;51.518;9.864;2024-01-30T06:36:58;99963.81;;;2.50;84.32
20710;BME280;10516;51.518;9.864;2024-01-30T06:39:23;99973.34;;;2.59;83.64
20710;BME280;10516;51.518;9.864;2024-01-30T06:41:49;99970.72;;;2.59;83.83
20710;BME280;10516;51.518;9.864;2024-01-30T06:44:14;99974.66;;;2.63;83.34
20710;BME280;10516;51.518;9.864;2024-01-30T06:46:40;99973.81;;;2.63;83.12
20710;BME280;10516;51.518;9.864;2024-01-30T06:49:05;99972.66;;;2.65;83.02
20710;BME280;10516;51.518;9.864;2024-01-30T06:51:31;99974.19;;;2.60;83.23
20710;BME280;10516;51.518;9.864;2024-01-30T06:53:56;99975.50;;;2.56;83.43
20710;BME280;10516;51.518;9.864;2024-01-30T06:56:21;99977.31;;;2.55;83.23
20710;BME280;10516;51.518;9.864;2024-01-30T06:58:48;99975.53;;;2.48;83.89
20710;BME280;10516;51.518;9.864;2024-01-30T07:01:14;99968.25;;;2.50;83.47
20710;BME280;10516;51.518;9.864;2024-01-30T07:03:40;99973.56;;;2.42;83.95
20710;BME280;10516;51.518;9.864;2024-01-30T07:06:05;99972.38;;;2.52;83.67
20710;BME280;10516;51.518;9.864;2024-01-30T07:08:31;99980.97;;;2.46;83.71
20710;BME280;10516;51.518;9.864;2024-01-30T07:10:56;99978.84;;;2.42;83.77
20710;BME280;10516;51.518;9.864;2024-01-30T07:13:21;99975.03;;;2.36;84.27
20710;BME280;10516;51.518;9.864;2024-01-30T07:15:47;99978.38;;;2.30;84.16
20710;BME280;10516;51.518;9.864;2024-01-30T07:18:12;99977.38;;;2.23;84.90
20710;BME280;10516;51.518;9.864;2024-01-30T07:20:39;99976.22;;;2.25;84.70
20710;BME280;10516;51.518;9.864;2024-01-30T07:23:10;99976.88;;;2.27;84.96
20710;BME280;10516;51.518;9.864;2024-01-30T07:25:39;99978.03;;;2.33;84.40
20710;BME280;10516;51.518;9.864;2024-01-30T07:28:09;99973.44;;;2.27;84.61
20710;BME280;10516;51.518;9.864;2024-01-30T07:30:36;99971.94;;;2.33;84.42
20710;BME280;10516;51.518;9.864;2024-01-30T07:33:01;99970.13;;;2.33;84.31
20710;BME280;10516;51.518;9.864;2024-01-30T07:35:27;99967.00;;;2.38;84.04
20710;BME280;10516;51.518;9.864;2024-01-30T07:37:52;99977.72;;;2.28;84.48
20710;BME280;10516;51.518;9.864;2024-01-30T07:40:17;99958.16;;;2.22;84.37
20710;BME280;10516;51.518;9.864;2024-01-30T07:42:43;99983.63;;;2.30;84.57
20710;BME280;10516;51.518;9.864;2024-01-30T07:45:09;99980.66;;;2.25;84.84
20710;BME280;10516;51.518;9.864;2024-01-30T07:47:34;99981.34;;;2.19;84.99
20710;BME280;10516;51.518;9.864;2024-01-30T07:49:59;99988.59;;;2.17;85.67
20710;BME280;10516;51.518;9.864;2024-01-30T07:52:25;99982.66;;;2.15;86.03
20710;BME280;10516;51.518;9.864;2024-01-30T07:54:51;99979.50;;;2.27;86.01
20710;BME280;10516;51.518;9.864;2024-01-30T07:57:16;99971.09;;;2.32;85.29
20710;BME280;10516;51.518;9.864;2024-01-30T07:59:43;99978.84;;;2.42;84.79
20710;BME280;10516;51.518;9.864;2024-01-30T08:02:14;99987.56;;;2.42;85.12
20710;BME280;10516;51.518;9.864;2024-01-30T08:04:40;99977.31;;;2.47;85.04
20710;BME280;10516;51.518;9.864;2024-01-30T08:07:05;99974.88;;;2.46;84.68
20710;BME280;10516;51.518;9.864;2024-01-30T08:09:30;99977.00;;;2.50;84.96
20710;BME280;10516;51.518;9.864;2024-01-30T08:11:56;99964.16;;;2.55;84.70
20710;BME280;10516;51.518;9.864;2024-01-30T08:14:21;99977.63;;;2.68;84.33
20710;BME280;10516;51.518;9.864;2024-01-30T08:16:47;99980.09;;;2.62;84.92
20710;BME280;10516;51.518;9.864;2024-01-30T08:19:12;99972.38;;;2.52;85.82
20710;BME280;10516;51.518;9.864;2024-01-30T08:21:38;99986.59;;;2.82;84.40
20710;BME280;10516;51.518;9.864;2024-01-30T08:24:04;99969.59;;;2.92;83.73
20710;BME280;10516;51.518;9.864;2024-01-30T08:26:30;99987.44;;;3.13;82.58
20710;BME280;10516;51.518;9.864;2024-01-30T08:28:55;99976.59;;;3.08;83.30
20710;BME280;10516;51.518;9.864;2024-01-30T08:31:20;99975.56;;;3.17;82.92
20710;BME280;10516;51.518;9.864;2024-01-30T08:33:46;99979.34;;;3.23;82.30
20710;BME280;10516;51.518;9.864;2024-01-30T08:36:11;99977.84;;;3.20;82.62
20710;BME280;10516;51.518;9.864;2024-01-30T08:38:36;99986.28;;;3.16;82.39
20710;BME280;10516;51.518;9.864;2024-01-30T08:41:02;99974.56;;;3.18;83.24
20710;BME280;10516;51.518;9.864;2024-01-30T08:43:28;99976.06;;;3.13;83.35
20710;BME280;10516;51.518;9.864;2024-01-30T08:45:53;99978.38;;;3.16;83.49
20710;BME280;10516;51.518;9.864;2024-01-30T08:48:18;99982.44;;;2.95;85.00
20710;BME280;10516;51.518;9.864;2024-01-30T08:50:44;99967.56;;;3.02;84.62
20710;BME280;10516;51.518;9.864;2024-01-30T08:53:09;99981.78;;;3.24;83.60
20710;BME280;10516;51.518;9.864;2024-01-30T08:55:34;99983.50;;;3.40;83.06
20710;BME280;10516;51.518;9.864;2024-01-30T08:58:00;99984.22;;;3.34;83.35
20710;BME280;10516;51.518;9.864;2024-01-30T09:00:25;99980.16;;;3.46;82.89
20710;BME280;10516;51.518;9.864;2024-01-30T09:02:50;99975.00;;;3.52;82.09
20710;BME280;10516;51.518;9.864;2024-01-30T09:05:16;99977.06;;;3.42;82.66
20710;BME280;10516;51.518;9.864;2024-01-30T09:07:41;99976.56;;;3.39;83.44
20710;BME280;10516;51.518;9.864;2024-01-30T09:10:07;99978.56;;;3.37;83.26
20710;BME280;10516;51.518;9.864;2024-01-30T09:12:32;99976.75;;;3.37;83.67
20710;BME280;10516;51.518;9.864;2024-01-30T09:14:58;99979.59;;;3.36;83.68
20710;BME280;10516;51.518;9.864;2024-01-30T09:17:23;99984.81;;;3.44;83.63
20710;BME280;10516;51.518;9.864;2024-01-30T09:19:48;99979.53;;;3.44;83.23
20710;BME280;10516;51.518;9.864;2024-01-30T09:22:14;99972.63;;;3.43;83.36
20710;BME280;10516;51.518;9.864;2024-01-30T09:24:40;99984.16;;;3.42;83.71
20710;BME280;10516;51.518;9.864;2024-01-30T09:27:05;99985.13;;;3.41;85.07
20710;BME280;10516;51.518;9.864;2024-01-30T09:29:31;99975.28;;;3.35;84.49
20710;BME280;10516;51.518;9.864;2024-01-30T09:31:59;99987.44;;;3.44;84.53
20710;BME280;10516;51.518;9.864;2024-01-30T09:34:24;99975.25;;;3.43;84.38
20710;BME280;10516;51.518;9.864;2024-01-30T09:36:50;99982.94;;;3.52;84.65
20710;BME280;10516;51.518;9.864;2024-01-30T09:39:15;99980.09;;;3.54;84.98
20710;BME280;10516;51.518;9.864;2024-01-30T09:41:58;99984.22;;;3.56;84.41
20710;BME280;10516;51.518;9.864;2024-01-30T09:44:28;99989.97;;;3.60;84.95
20710;BME280;10516;51.518;9.864;2024-01-30T09:46:55;99979.56;;;3.58;84.75
20710;BME280;10516;51.518;9.864;2024-01-30T09:49:20;99979.88;;;3.63;84.79
20710;BME280;10516;51.518;9.864;2024-01-30T09:51:50;99976.41;;;3.63;85.00
20710;BME280;10516;51.518;9.864;2024-01-30T09:54:15;99971.44;;;3.68;84.90
20710;BME280;10516;51.518;9.864;2024-01-30T09:56:41;99981.91;;;3.76;84.44
20710;BME280;10516;51.518;9.864;2024-01-30T09:59:06;99984.03;;;3.80;84.50
20710;BME280;10516;51.518;9.864;2024-01-30T10:01:34;99988.44;;;3.88;83.38
20710;BME280;10516;51.518;9.864;2024-01-30T10:04:00;99975.44;;;3.87;83.70
20710;BME280;10516;51.518;9.864;2024-01-30T10:06:26;99973.59;;;3.87;84.29
20710;BME280;10516;51.518;9.864;2024-01-30T10:08:51;99984.66;;;4.05;83.76
20710;BME280;10516;51.518;9.864;2024-01-30T10:11:17;99984.56;;;3.99;84.34
20710;BME280;10516;51.518;9.864;2024-01-30T10:13:42;99980.94;;;4.00;83.85
20710;BME280;10516;51.518;9.864;2024-01-30T10:16:07;99985.94;;;4.09;84.32
20710;BME280;10516;51.518;9.864;2024-01-30T10:18:33;99988.78;;;4.08;84.54
20710;BME280;10516;51.518;9.864;2024-01-30T10:20:59;99983.78;;;4.13;84.29
20710;BME280;10516;51.518;9.864;2024-01-30T10:23:24;99984.03;;;4.18;84.01
20710;BME280;10516;51.518;9.864;2024-01-30T10:25:51;99983.59;;;4.29;83.42
20710;BME280;10516;51.518;9.864;2024-01-30T10:28:17;99983.72;;;4.35;82.85
20710;BME280;10516;51.518;9.864;2024-01-30T10:30:42;99976.91;;;4.41;82.33
20710;BME280;10516;51.518;9.864;2024-01-30T10:33:08;99978.53;;;4.42;82.86
20710;BME280;10516;51.518;9.864;2024-01-30T10:35:33;99979.97;;;4.44;82.38
20710;BME280;10516;51.518;9.864;2024-01-30T10:37:59;99978.41;;;4.50;82.56
20710;BME280;10516;51.518;9.864;2024-01-30T10:40:27;99982.09;;;4.49;83.49
20710;BME280;10516;51.518;9.864;2024-01-30T10:42:55;99974.78;;;4.51;84.29
20710;BME280;10516;51.518;9.864;2024-01-30T10:45:21;99966.31;;;4.55;83.01
20710;BME280;10516;51.518;9.864;2024-01-30T10:47:53;99962.59;;;4.65;81.71
20710;BME280;10516;51.518;9.864;2024-01-30T10:50:20;99965.75;;;4.75;82.27
20710;BME280;10516;51.518;9.864;2024-01-30T10:52:46;99956.91;;;4.82;82.54
20710;BME280;10516;51.518;9.864;2024-01-30T10:55:12;99952.72;;;4.73;82.71
20710;BME280;10516;51.518;9.864;2024-01-30T10:57:39;99953.25;;;4.83;82.23
20710;BME280;10516;51.518;9.864;2024-01-30T11:00:09;99948.44;;;4.87;82.03
20710;BME280;10516;51.518;9.864;2024-01-30T11:02:37;99956.16;;;4.88;81.85
20710;BME280;10516;51.518;9.864;2024-01-30T11:05:04;99957.16;;;4.87;82.08
20710;BME280;10516;51.518;9.864;2024-01-30T11:07:30;99938.22;;;4.84;82.27
20710;BME280;10516;51.518;9.864;2024-01-30T11:12:24;99935.91;;;4.95;83.21
20710;BME280;10516;51.518;9.864;2024-01-30T11:15:01;99926.78;;;4.98;82.79
20710;BME280;10516;51.518;9.864;2024-01-30T11:17:28;99925.22;;;5.03;82.64
20710;BME280;10516;51.518;9.864;2024-01-30T11:19:53;99917.72;;;5.07;83.63
20710;BME280;10516;51.518;9.864;2024-01-30T11:22:20;99914.34;;;5.13;83.04
20710;BME280;10516;51.518;9.864;2024-01-30T11:24:46;99914.06;;;5.08;85.36
20710;BME280;10516;51.518;9.864;2024-01-30T11:27:12;99919.88;;;5.18;84.31
20710;BME280;10516;51.518;9.864;2024-01-30T11:29:40;99914.03;;;5.22;84.54
20710;BME280;10516;51.518;9.864;2024-01-30T11:32:05;99917.38;;;5.31;83.55
20710;BME280;10516;51.518;9.864;2024-01-30T11:34:32;99905.22;;;5.37;84.19
20710;BME280;10516;51.518;9.864;2024-01-30T11:37:03;99901.13;;;5.34;84.39
20710;BME280;10516;51.518;9.864;2024-01-30T11:39:32;99907.09;;;5.43;83.70
20710;BME280;10516;51.518;9.864;2024-01-30T11:41:58;99907.72;;;5.45;82.22
20710;BME280;10516;51.518;9.864;2024-01-30T11:44:24;99908.06;;;5.56;82.63
20710;BME280;10516;51.518;9.864;2024-01-30T11:46:50;99905.97;;;5.52;82.16
20710;BME280;10516;51.518;9.864;2024-01-30T11:49:16;99908.06;;;5.56;82.78
20710;BME280;10516;51.518;9.864;2024-01-30T11:51:42;99920.16;;;5.65;80.78
20710;BME280;10516;51.518;9.864;2024-01-30T11:54:08;99917.88;;;5.62;81.24
20710;BME280;10516;51.518;9.864;2024-01-30T11:56:33;99929.91;;;5.65;80.89
20710;BME280;10516;51.518;9.864;2024-01-30T11:58:59;99926.75;;;5.76;81.40
20710;BME280;10516;51.518;9.864;2024-01-30T12:01:26;99917.09;;;5.68;80.86
20710;BME280;10516;51.518;9.864;2024-01-30T12:03:51;99909.94;;;5.62;81.69
20710;BME280;10516;51.518;9.864;2024-01-30T12:06:17;99911.75;;;5.62;81.81
20710;BME280;10516;51.518;9.864;2024-01-30T12:08:42;99903.63;;;5.63;82.64
20710;BME280;10516;51.518;9.864;2024-01-30T12:11:08;99911.81;;;5.68;83.19
20710;BME280;10516;51.518;9.864;2024-01-30T12:13:33;99914.72;;;5.73;81.59
20710;BME280;10516;51.518;9.864;2024-01-30T12:16:00;99909.66;;;5.78;81.69
20710;BME280;10516;51.518;9.864;2024-01-30T12:18:26;99918.63;;;5.77;82.94
20710;BME280;10516;51.518;9.864;2024-01-30T12:20:58;99918.03;;;5.82;82.56
20710;BME280;10516;51.518;9.864;2024-01-30T12:23:25;99909.34;;;5.88;82.81
20710;BME280;10516;51.518;9.864;2024-01-30T12:25:52;99902.66;;;5.92;81.92
20710;BME280;10516;51.518;9.864;2024-01-30T12:28:17;99908.72;;;5.86;83.29
20710;BME280;10516;51.518;9.864;2024-01-30T12:30:42;99893.75;;;5.99;82.02
20710;BME280;10516;51.518;9.864;2024-01-30T12:33:08;99901.56;;;6.07;81.63
20710;BME280;10516;51.518;9.864;2024-01-30T12:35:35;99907.25;;;6.04;82.99
20710;BME280;10516;51.518;9.864;2024-01-30T12:38:00;99894.03;;;6.11;82.54
20710;BME280;10516;51.518;9.864;2024-01-30T12:40:26;99902.50;;;6.28;82.28
20710;BME280;10516;51.518;9.864;2024-01-30T12:42:51;99902.09;;;6.24;83.59
20710;BME280;10516;51.518;9.864;2024-01-30T12:45:17;99888.00;;;6.24;83.83
20710;BME280;10516;51.518;9.864;2024-01-30T12:47:47;99890.06;;;6.28;82.45
20710;BME280;10516;51.518;9.864;2024-01-30T12:50:12;99881.16;;;6.42;82.00
20710;BME280;10516;51.518;9.864;2024-01-30T12:52:41;99881.56;;;6.39;81.88
20710;BME280;10516;51.518;9.864;2024-01-30T12:55:06;99894.63;;;6.41;82.00
20710;BME280;10516;51.518;9.864;2024-01-30T12:57:32;99883.03;;;6.48;81.24
20710;BME280;10516;51.518;9.864;2024-01-30T12:59:57;99897.34;;;6.54;81.38
20710;BME280;10516;51.518;9.864;2024-01-30T13:02:23;99876.06;;;6.41;81.86